sensor_id;sensor_type;location;lat;lon;timestamp;P1;durP1;ratioP1;P2;durP2;ratioP2
16954;SDS011;8594;52.052;8.354;2024-02-21T00:00:45;42.47;;;17.37;;
16954;SDS011;8594;52.052;8.354;2024-02-21T00:03:12;40.40;;;17.00;;
16954;SDS011;8594;52.052;8.354;2024-02-21T00:05:41;40.60;;;17.00;;
16954;SDS011;8594;52.052;8.354;2024-02-21T00:08:07;41.63;;;18.00;;
16954;SDS011;8594;52.052;8.354;2024-02-21T00:10:34;44.43;;;18.00;;
16954;SDS011;8594;52.052;8.354;2024-02-21T00:13:01;39.73;;;18.23;;
16954;SDS011;8594;52.052;8.354;2024-02-21T00:15:28;43.47;;;18.47;;
16954;SDS011;8594;52.052;8.354;2024-02-21T00:17:55;41.73;;;17.73;;
16954;SDS011;8594;52.052;8.354;2024-02-21T00:20:22;50.80;;;18.13;;
16954;SDS011;8594;52.052;8.354;2024-02-21T00:22:51;36.60;;;16.80;;
16954;SDS011;8594;52.052;8.354;2024-02-21T00:25:19;41.53;;;16.77;;
16954;SDS011;8594;52.052;8.354;2024-02-21T00:27:45;45.47;;;17.63;;
16954;SDS011;8594;52.052;8.354;2024-02-21T00:30:12;39.30;;;17.83;;
16954;SDS011;8594;52.052;8.354;2024-02-21T00:32:39;35.90;;;17.20;;
16954;SDS011;8594;52.052;8.354;2024-02-21T00:35:06;43.77;;;17.43;;
16954;SDS011;8594;52.052;8.354;2024-02-21T00:37:33;45.10;;;17.20;;
16954;SDS011;8594;52.052;8.354;2024-02-21T00:40:01;37.57;;;16.73;;
16954;SDS011;8594;52.052;8.354;2024-02-21T00:42:30;50.60;;;17.97;;
16954;SDS011;8594;52.052;8.354;2024-02-21T00:44:57;41.37;;;17.10;;
16954;SDS011;8594;52.052;8.354;2024-02-21T00:47:24;45.77;;;16.60;;
16954;SDS011;8594;52.052;8.354;2024-02-21T00:49:51;42.87;;;17.27;;
16954;SDS011;8594;52.052;8.354;2024-02-21T00:52:18;41.43;;;16.57;;
16954;SDS011;8594;52.052;8.354;2024-02-21T00:54:44;39.90;;;16.67;;
16954;SDS011;8594;52.052;8.354;2024-02-21T00:57:12;42.67;;;15.93;;
16954;SDS011;8594;52.052;8.354;2024-02-21T00:59:39;37.40;;;16.23;;
16954;SDS011;8594;52.052;8.354;2024-02-21T01:02:06;44.70;;;17.40;;
16954;SDS011;8594;52.052;8.354;2024-02-21T01:04:34;43.90;;;17.20;;
16954;SDS011;8594;52.052;8.354;2024-02-21T01:07:01;44.07;;;16.90;;
16954;SDS011;8594;52.052;8.354;2024-02-21T01:09:28;44.97;;;16.93;;
16954;SDS011;8594;52.052;8.354;2024-02-21T01:11:55;35.50;;;16.10;;
16954;SDS011;8594;52.052;8.354;2024-02-21T01:14:23;37.47;;;16.67;;
16954;SDS011;8594;52.052;8.354;2024-02-21T01:16:49;40.60;;;17.43;;
16954;SDS011;8594;52.052;8.354;2024-02-21T01:19:16;38.37;;;15.50;;
16954;SDS011;8594;52.052;8.354;2024-02-21T01:21:43;38.10;;;15.73;;
16954;SDS011;8594;52.052;8.354;2024-02-21T01:24:09;41.73;;;16.13;;
16954;SDS011;8594;52.052;8.354;2024-02-21T01:26:36;31.80;;;15.40;;
16954;SDS011;8594;52.052;8.354;2024-02-21T01:29:03;36.23;;;16.20;;
16954;SDS011;8594;52.052;8.354;2024-02-21T01:31:31;40.80;;;15.90;;
16954;SDS011;8594;52.052;8.354;2024-02-21T01:33:58;41.27;;;16.97;;
16954;SDS011;8594;52.052;8.354;2024-02-21T01:36:24;34.23;;;16.23;;
16954;SDS011;8594;52.052;8.354;2024-02-21T01:38:51;37.33;;;16.03;;
16954;SDS011;8594;52.052;8.354;2024-02-21T01:41:18;38.00;;;16.60;;
16954;SDS011;8594;52.052;8.354;2024-02-21T01:43:44;36.70;;;15.97;;
16954;SDS011;8594;52.052;8.354;2024-02-21T01:46:11;42.00;;;16.87;;
16954;SDS011;8594;52.052;8.354;2024-02-21T01:48:39;45.23;;;17.13;;
16954;SDS011;8594;52.052;8.354;2024-02-21T01:51:06;42.73;;;17.93;;
16954;SDS011;8594;52.052;8.354;2024-02-21T01:53:34;41.50;;;16.23;;
16954;SDS011;8594;52.052;8.354;2024-02-21T01:56:06;46.10;;;17.17;;
16954;SDS011;8594;52.052;8.354;2024-02-21T01:58:34;40.37;;;16.97;;
16954;SDS011;8594;52.052;8.354;2024-02-21T02:01:05;40.37;;;16.60;;
16954;SDS011;8594;52.052;8.354;2024-02-21T02:03:32;42.83;;;17.43;;
16954;SDS011;8594;52.052;8.354;2024-02-21T02:06:00;37.40;;;17.00;;
16954;SDS011;8594;52.052;8.354;2024-02-21T02:08:28;41.83;;;17.80;;
16954;SDS011;8594;52.052;8.354;2024-02-21T02:10:55;43.57;;;17.63;;
16954;SDS011;8594;52.052;8.354;2024-02-21T02:13:22;46.70;;;18.80;;
16954;SDS011;8594;52.052;8.354;2024-02-21T02:15:49;44.80;;;18.17;;
16954;SDS011;8594;52.052;8.354;2024-02-21T02:18:17;45.57;;;18.50;;
16954;SDS011;8594;52.052;8.354;2024-02-21T02:20:46;38.67;;;17.80;;
16954;SDS011;8594;52.052;8.354;2024-02-21T02:23:17;41.17;;;18.47;;
16954;SDS011;8594;52.052;8.354;2024-02-21T02:25:49;48.43;;;17.80;;
16954;SDS011;8594;52.052;8.354;2024-02-21T02:28:17;48.93;;;18.63;;
16954;SDS011;8594;52.052;8.354;2024-02-21T02:30:45;41.70;;;18.10;;
16954;SDS011;8594;52.052;8.354;2024-02-21T02:33:13;44.97;;;18.40;;
16954;SDS011;8594;52.052;8.354;2024-02-21T02:35:40;46.57;;;19.50;;
16954;SDS011;8594;52.052;8.354;2024-02-21T02:38:06;50.80;;;19.33;;
16954;SDS011;8594;52.052;8.354;2024-02-21T02:40:36;51.53;;;18.70;;
16954;SDS011;8594;52.052;8.354;2024-02-21T02:43:04;42.90;;;17.67;;
16954;SDS011;8594;52.052;8.354;2024-02-21T02:45:31;41.97;;;18.27;;
16954;SDS011;8594;52.052;8.354;2024-02-21T02:47:58;44.93;;;18.93;;
16954;SDS011;8594;52.052;8.354;2024-02-21T02:50:26;45.80;;;18.70;;
16954;SDS011;8594;52.052;8.354;2024-02-21T02:52:54;35.93;;;16.90;;
16954;SDS011;8594;52.052;8.354;2024-02-21T02:55:21;41.80;;;18.20;;
16954;SDS011;8594;52.052;8.354;2024-02-21T02:57:49;46.17;;;16.97;;
16954;SDS011;8594;52.052;8.354;2024-02-21T03:00:16;42.57;;;17.63;;
16954;SDS011;8594;52.052;8.354;2024-02-21T03:02:44;41.03;;;17.20;;
16954;SDS011;8594;52.052;8.354;2024-02-21T03:05:12;47.03;;;17.90;;
16954;SDS011;8594;52.052;8.354;2024-02-21T03:07:40;40.93;;;17.53;;
16954;SDS011;8594;52.052;8.354;2024-02-21T03:10:08;35.87;;;17.27;;
16954;SDS011;8594;52.052;8.354;2024-02-21T03:12:35;35.87;;;16.73;;
16954;SDS011;8594;52.052;8.354;2024-02-21T03:15:04;52.90;;;18.60;;
16954;SDS011;8594;52.052;8.354;2024-02-21T03:17:32;45.20;;;16.67;;
16954;SDS011;8594;52.052;8.354;2024-02-21T03:20:00;43.00;;;17.27;;
16954;SDS011;8594;52.052;8.354;2024-02-21T03:22:30;36.93;;;16.53;;
16954;SDS011;8594;52.052;8.354;2024-02-21T03:24:58;36.83;;;16.33;;
16954;SDS011;8594;52.052;8.354;2024-02-21T03:27:24;42.87;;;16.43;;
16954;SDS011;8594;52.052;8.354;2024-02-21T03:29:51;38.03;;;16.77;;
16954;SDS011;8594;52.052;8.354;2024-02-21T03:32:19;32.30;;;15.63;;
16954;SDS011;8594;52.052;8.354;2024-02-21T03:34:46;36.90;;;15.57;;
16954;SDS011;8594;52.052;8.354;2024-02-21T03:37:13;49.97;;;17.23;;
16954;SDS011;8594;52.052;8.354;2024-02-21T03:39:40;37.80;;;16.23;;
16954;SDS011;8594;52.052;8.354;2024-02-21T03:42:07;45.37;;;17.03;;
16954;SDS011;8594;52.052;8.354;2024-02-21T03:44:33;34.67;;;15.00;;
16954;SDS011;8594;52.052;8.354;2024-02-21T03:47:00;38.50;;;15.53;;
16954;SDS011;8594;52.052;8.354;2024-02-21T03:49:28;40.80;;;16.37;;
16954;SDS011;8594;52.052;8.354;2024-02-21T03:51:55;35.23;;;14.90;;
16954;SDS011;8594;52.052;8.354;2024-02-21T03:54:22;41.50;;;14.47;;
16954;SDS011;8594;52.052;8.354;2024-02-21T03:56:49;40.87;;;15.57;;
16954;SDS011;8594;52.052;8.354;2024-02-21T03:59:16;39.83;;;15.27;;
16954;SDS011;8594;52.052;8.354;2024-02-21T04:01:42;36.33;;;15.00;;
16954;SDS011;8594;52.052;8.354;2024-02-21T04:04:09;31.87;;;14.20;;
16954;SDS011;8594;52.052;8.354;2024-02-21T04:06:38;33.97;;;14.87;;
16954;SDS011;8594;52.052;8.354;2024-02-21T04:09:13;34.37;;;14.73;;
16954;SDS011;8594;52.052;8.354;2024-02-21T04:11:40;43.43;;;15.73;;
16954;SDS011;8594;52.052;8.354;2024-02-21T04:14:06;43.27;;;17.43;;
16954;SDS011;8594;52.052;8.354;2024-02-21T04:16:34;41.00;;;15.60;;
16954;SDS011;8594;52.052;8.354;2024-02-21T04:19:01;34.50;;;14.33;;
16954;SDS011;8594;52.052;8.354;2024-02-21T04:21:28;38.77;;;14.83;;
16954;SDS011;8594;52.052;8.354;2024-02-21T04:23:56;38.03;;;14.53;;
16954;SDS011;8594;52.052;8.354;2024-02-21T04:26:23;34.83;;;14.07;;
16954;SDS011;8594;52.052;8.354;2024-02-21T04:28:50;36.63;;;14.77;;
16954;SDS011;8594;52.052;8.354;2024-02-21T04:31:16;38.80;;;14.70;;
16954;SDS011;8594;52.052;8.354;2024-02-21T04:33:43;37.03;;;14.63;;
16954;SDS011;8594;52.052;8.354;2024-02-21T04:36:10;34.73;;;13.90;;
16954;SDS011;8594;52.052;8.354;2024-02-21T04:38:37;32.43;;;14.67;;
16954;SDS011;8594;52.052;8.354;2024-02-21T04:41:05;34.37;;;14.40;;
16954;SDS011;8594;52.052;8.354;2024-02-21T04:43:33;31.93;;;13.83;;
16954;SDS011;8594;52.052;8.354;2024-02-21T04:45:59;41.53;;;14.40;;
16954;SDS011;8594;52.052;8.354;2024-02-21T04:48:26;31.97;;;13.53;;
16954;SDS011;8594;52.052;8.354;2024-02-21T04:50:53;35.40;;;13.00;;
16954;SDS011;8594;52.052;8.354;2024-02-21T04:53:20;38.77;;;14.23;;
16954;SDS011;8594;52.052;8.354;2024-02-21T04:55:47;31.83;;;14.43;;
16954;SDS011;8594;52.052;8.354;2024-02-21T04:58:15;35.60;;;15.33;;
16954;SDS011;8594;52.052;8.354;2024-02-21T05:00:42;31.10;;;13.17;;
16954;SDS011;8594;52.052;8.354;2024-02-21T05:03:08;39.97;;;14.47;;
16954;SDS011;8594;52.052;8.354;2024-02-21T05:05:36;34.80;;;14.63;;
16954;SDS011;8594;52.052;8.354;2024-02-21T05:08:03;31.37;;;13.63;;
16954;SDS011;8594;52.052;8.354;2024-02-21T05:10:30;41.20;;;15.33;;
16954;SDS011;8594;52.052;8.354;2024-02-21T05:12:57;36.80;;;14.27;;
16954;SDS011;8594;52.052;8.354;2024-02-21T05:15:25;44.10;;;14.40;;
16954;SDS011;8594;52.052;8.354;2024-02-21T05:17:52;38.00;;;15.17;;
16954;SDS011;8594;52.052;8.354;2024-02-21T05:20:18;36.63;;;14.37;;
16954;SDS011;8594;52.052;8.354;2024-02-21T05:22:45;35.87;;;13.43;;
16954;SDS011;8594;52.052;8.354;2024-02-21T05:25:12;37.97;;;13.87;;
16954;SDS011;8594;52.052;8.354;2024-02-21T05:27:39;40.77;;;14.30;;
16954;SDS011;8594;52.052;8.354;2024-02-21T05:30:06;33.87;;;15.53;;
16954;SDS011;8594;52.052;8.354;2024-02-21T05:32:36;38.37;;;15.33;;
16954;SDS011;8594;52.052;8.354;2024-02-21T05:35:03;31.40;;;14.27;;
16954;SDS011;8594;52.052;8.354;2024-02-21T05:37:30;37.40;;;15.17;;
16954;SDS011;8594;52.052;8.354;2024-02-21T05:39:56;42.70;;;15.83;;
16954;SDS011;8594;52.052;8.354;2024-02-21T05:42:23;38.43;;;16.03;;
16954;SDS011;8594;52.052;8.354;2024-02-21T05:44:50;31.13;;;14.70;;
16954;SDS011;8594;52.052;8.354;2024-02-21T05:47:17;43.33;;;15.20;;
16954;SDS011;8594;52.052;8.354;2024-02-21T05:49:46;44.13;;;15.87;;
16954;SDS011;8594;52.052;8.354;2024-02-21T05:52:13;47.50;;;15.53;;
16954;SDS011;8594;52.052;8.354;2024-02-21T05:54:40;35.43;;;15.53;;
16954;SDS011;8594;52.052;8.354;2024-02-21T05:57:07;39.63;;;15.73;;
16954;SDS011;8594;52.052;8.354;2024-02-21T05:59:34;34.57;;;15.63;;
16954;SDS011;8594;52.052;8.354;2024-02-21T06:02:04;40.40;;;14.87;;
16954;SDS011;8594;52.052;8.354;2024-02-21T06:04:31;37.30;;;14.87;;
16954;SDS011;8594;52.052;8.354;2024-02-21T06:06:59;35.67;;;15.67;;
16954;SDS011;8594;52.052;8.354;2024-02-21T06:09:26;37.10;;;15.03;;
16954;SDS011;8594;52.052;8.354;2024-02-21T06:11:53;40.93;;;15.30;;
16954;SDS011;8594;52.052;8.354;2024-02-21T06:14:20;29.63;;;14.90;;
16954;SDS011;8594;52.052;8.354;2024-02-21T06:16:47;33.57;;;14.53;;
16954;SDS011;8594;52.052;8.354;2024-02-21T06:19:14;42.43;;;14.67;;
16954;SDS011;8594;52.052;8.354;2024-02-21T06:21:41;35.47;;;14.77;;
16954;SDS011;8594;52.052;8.354;2024-02-21T06:24:10;30.93;;;15.23;;
16954;SDS011;8594;52.052;8.354;2024-02-21T06:26:37;30.13;;;15.33;;
16954;SDS011;8594;52.052;8.354;2024-02-21T06:29:05;37.27;;;15.20;;
16954;SDS011;8594;52.052;8.354;2024-02-21T06:31:32;32.47;;;14.90;;
16954;SDS011;8594;52.052;8.354;2024-02-21T06:33:58;34.47;;;13.97;;
16954;SDS011;8594;52.052;8.354;2024-02-21T06:36:25;31.03;;;14.87;;
16954;SDS011;8594;52.052;8.354;2024-02-21T06:38:52;35.57;;;13.67;;
16954;SDS011;8594;52.052;8.354;2024-02-21T06:41:20;32.57;;;12.77;;
16954;SDS011;8594;52.052;8.354;2024-02-21T06:43:47;33.97;;;13.63;;
16954;SDS011;8594;52.052;8.354;2024-02-21T06:46:22;30.67;;;13.43;;
16954;SDS011;8594;52.052;8.354;2024-02-21T06:48:50;29.20;;;13.57;;
16954;SDS011;8594;52.052;8.354;2024-02-21T06:51:17;31.27;;;12.87;;
16954;SDS011;8594;52.052;8.354;2024-02-21T06:53:44;29.20;;;12.70;;
16954;SDS011;8594;52.052;8.354;2024-02-21T06:56:10;36.30;;;13.07;;
16954;SDS011;8594;52.052;8.354;2024-02-21T06:58:38;27.90;;;12.70;;
16954;SDS011;8594;52.052;8.354;2024-02-21T07:01:06;30.03;;;12.60;;
16954;SDS011;8594;52.052;8.354;2024-02-21T07:03:32;26.20;;;11.93;;
16954;SDS011;8594;52.052;8.354;2024-02-21T07:05:59;25.93;;;12.03;;
16954;SDS011;8594;52.052;8.354;2024-02-21T07:08:26;27.70;;;12.03;;
16954;SDS011;8594;52.052;8.354;2024-02-21T07:10:53;33.17;;;11.43;;
16954;SDS011;8594;52.052;8.354;2024-02-21T07:13:20;27.33;;;11.67;;
16954;SDS011;8594;52.052;8.354;2024-02-21T07:15:49;26.70;;;11.23;;
16954;SDS011;8594;52.052;8.354;2024-02-21T07:18:16;26.93;;;10.77;;
16954;SDS011;8594;52.052;8.354;2024-02-21T07:20:43;33.10;;;11.07;;
16954;SDS011;8594;52.052;8.354;2024-02-21T07:23:09;29.93;;;10.77;;
16954;SDS011;8594;52.052;8.354;2024-02-21T07:25:36;23.03;;;10.77;;
16954;SDS011;8594;52.052;8.354;2024-02-21T07:28:03;22.70;;;10.67;;
16954;SDS011;8594;52.052;8.354;2024-02-21T07:30:30;26.57;;;10.10;;
16954;SDS011;8594;52.052;8.354;2024-02-21T07:32:58;24.10;;;10.27;;
16954;SDS011;8594;52.052;8.354;2024-02-21T07:35:25;27.37;;;9.37;;
16954;SDS011;8594;52.052;8.354;2024-02-21T07:37:52;21.07;;;8.70;;
16954;SDS011;8594;52.052;8.354;2024-02-21T07:40:19;30.37;;;9.43;;
16954;SDS011;8594;52.052;8.354;2024-02-21T07:42:46;18.23;;;8.60;;
16954;SDS011;8594;52.052;8.354;2024-02-21T07:45:13;26.10;;;9.43;;
16954;SDS011;8594;52.052;8.354;2024-02-21T07:47:39;24.50;;;8.30;;
16954;SDS011;8594;52.052;8.354;2024-02-21T07:50:08;22.90;;;9.53;;
16954;SDS011;8594;52.052;8.354;2024-02-21T07:52:35;19.17;;;8.80;;
16954;SDS011;8594;52.052;8.354;2024-02-21T07:55:02;19.60;;;8.10;;
16954;SDS011;8594;52.052;8.354;2024-02-21T07:57:29;23.43;;;9.20;;
16954;SDS011;8594;52.052;8.354;2024-02-21T07:59:56;22.43;;;8.13;;
16954;SDS011;8594;52.052;8.354;2024-02-21T08:02:22;24.83;;;7.60;;
16954;SDS011;8594;52.052;8.354;2024-02-21T08:04:49;18.37;;;7.77;;
16954;SDS011;8594;52.052;8.354;2024-02-21T08:07:17;18.50;;;7.50;;
16954;SDS011;8594;52.052;8.354;2024-02-21T08:09:44;23.77;;;8.07;;
16954;SDS011;8594;52.052;8.354;2024-02-21T08:12:10;23.03;;;7.97;;
16954;SDS011;8594;52.052;8.354;2024-02-21T08:14:37;20.00;;;7.30;;
16954;SDS011;8594;52.052;8.354;2024-02-21T08:17:04;20.63;;;7.87;;
16954;SDS011;8594;52.052;8.354;2024-02-21T08:19:31;17.80;;;7.30;;
16954;SDS011;8594;52.052;8.354;2024-02-21T08:21:58;20.37;;;7.53;;
16954;SDS011;8594;52.052;8.354;2024-02-21T08:24:26;18.57;;;7.00;;
16954;SDS011;8594;52.052;8.354;2024-02-21T08:26:53;19.83;;;6.60;;
16954;SDS011;8594;52.052;8.354;2024-02-21T08:29:20;18.97;;;6.50;;
16954;SDS011;8594;52.052;8.354;2024-02-21T08:31:46;17.67;;;6.70;;
16954;SDS011;8594;52.052;8.354;2024-02-21T08:34:13;17.67;;;6.47;;
16954;SDS011;8594;52.052;8.354;2024-02-21T08:36:40;20.13;;;7.27;;
16954;SDS011;8594;52.052;8.354;2024-02-21T08:39:06;16.30;;;6.00;;
16954;SDS011;8594;52.052;8.354;2024-02-21T08:41:35;20.87;;;6.90;;
16954;SDS011;8594;52.052;8.354;2024-02-21T08:44:03;16.60;;;6.77;;
16954;SDS011;8594;52.052;8.354;2024-02-21T08:46:30;15.93;;;6.60;;
16954;SDS011;8594;52.052;8.354;2024-02-21T08:48:57;16.33;;;6.63;;
16954;SDS011;8594;52.052;8.354;2024-02-21T08:51:23;16.17;;;6.03;;
16954;SDS011;8594;52.052;8.354;2024-02-21T08:53:51;16.03;;;5.47;;
16954;SDS011;8594;52.052;8.354;2024-02-21T08:56:18;16.00;;;6.13;;
16954;SDS011;8594;52.052;8.354;2024-02-21T08:58:46;14.03;;;5.87;;
16954;SDS011;8594;52.052;8.354;2024-02-21T09:01:13;12.13;;;5.07;;
16954;SDS011;8594;52.052;8.354;2024-02-21T09:03:40;17.80;;;6.10;;
16954;SDS011;8594;52.052;8.354;2024-02-21T09:06:07;17.73;;;5.63;;
16954;SDS011;8594;52.052;8.354;2024-02-21T09:08:38;17.87;;;5.67;;
16954;SDS011;8594;52.052;8.354;2024-02-21T09:11:05;14.10;;;5.40;;
16954;SDS011;8594;52.052;8.354;2024-02-21T09:13:32;12.70;;;5.37;;
16954;SDS011;8594;52.052;8.354;2024-02-21T09:16:00;12.87;;;4.93;;
16954;SDS011;8594;52.052;8.354;2024-02-21T09:18:27;16.20;;;5.00;;
16954;SDS011;8594;52.052;8.354;2024-02-21T09:20:54;16.70;;;5.27;;
16954;SDS011;8594;52.052;8.354;2024-02-21T09:23:23;22.77;;;5.43;;
16954;SDS011;8594;52.052;8.354;2024-02-21T09:25:50;13.97;;;4.90;;
16954;SDS011;8594;52.052;8.354;2024-02-21T09:28:17;8.73;;;4.90;;
16954;SDS011;8594;52.052;8.354;2024-02-21T09:30:44;13.53;;;5.20;;
16954;SDS011;8594;52.052;8.354;2024-02-21T09:33:12;10.80;;;4.50;;
16954;SDS011;8594;52.052;8.354;2024-02-21T09:35:41;15.00;;;4.90;;
16954;SDS011;8594;52.052;8.354;2024-02-21T09:38:08;12.33;;;4.60;;
16954;SDS011;8594;52.052;8.354;2024-02-21T09:40:35;9.27;;;4.13;;
16954;SDS011;8594;52.052;8.354;2024-02-21T09:43:04;11.67;;;5.10;;
16954;SDS011;8594;52.052;8.354;2024-02-21T09:45:32;13.63;;;5.47;;
16954;SDS011;8594;52.052;8.354;2024-02-21T09:48:06;12.10;;;4.87;;
16954;SDS011;8594;52.052;8.354;2024-02-21T09:50:50;12.73;;;4.13;;
16954;SDS011;8594;52.052;8.354;2024-02-21T09:53:19;15.67;;;4.83;;
16954;SDS011;8594;52.052;8.354;2024-02-21T09:55:46;10.43;;;4.67;;
16954;SDS011;8594;52.052;8.354;2024-02-21T09:58:14;11.23;;;4.60;;
16954;SDS011;8594;52.052;8.354;2024-02-21T10:00:42;15.23;;;4.57;;
16954;SDS011;8594;52.052;8.354;2024-02-21T10:03:08;15.50;;;6.37;;
16954;SDS011;8594;52.052;8.354;2024-02-21T10:05:37;8.23;;;3.90;;
16954;SDS011;8594;52.052;8.354;2024-02-21T10:08:04;10.57;;;4.50;;
16954;SDS011;8594;52.052;8.354;2024-02-21T10:10:40;10.03;;;4.30;;
16954;SDS011;8594;52.052;8.354;2024-02-21T10:13:09;11.10;;;4.93;;
16954;SDS011;8594;52.052;8.354;2024-02-21T10:15:36;9.27;;;4.53;;
16954;SDS011;8594;52.052;8.354;2024-02-21T10:18:04;9.77;;;4.30;;
16954;SDS011;8594;52.052;8.354;2024-02-21T10:20:31;14.07;;;4.00;;
16954;SDS011;8594;52.052;8.354;2024-02-21T10:23:03;16.50;;;4.83;;
16954;SDS011;8594;52.052;8.354;2024-02-21T10:25:34;11.97;;;4.70;;
16954;SDS011;8594;52.052;8.354;2024-02-21T10:28:03;11.17;;;4.80;;
16954;SDS011;8594;52.052;8.354;2024-02-21T10:30:30;17.13;;;4.80;;
16954;SDS011;8594;52.052;8.354;2024-02-21T10:32:57;20.77;;;5.30;;
16954;SDS011;8594;52.052;8.354;2024-02-21T10:35:27;15.10;;;4.93;;
16954;SDS011;8594;52.052;8.354;2024-02-21T10:37:56;11.30;;;5.17;;
16954;SDS011;8594;52.052;8.354;2024-02-21T10:40:26;12.00;;;5.23;;
16954;SDS011;8594;52.052;8.354;2024-02-21T10:42:56;12.30;;;5.10;;
16954;SDS011;8594;52.052;8.354;2024-02-21T10:45:27;11.20;;;4.70;;
16954;SDS011;8594;52.052;8.354;2024-02-21T10:48:00;12.20;;;4.67;;
16954;SDS011;8594;52.052;8.354;2024-02-21T10:50:42;11.70;;;4.87;;
16954;SDS011;8594;52.052;8.354;2024-02-21T10:53:24;9.60;;;4.67;;
16954;SDS011;8594;52.052;8.354;2024-02-21T10:56:05;14.93;;;5.43;;
16954;SDS011;8594;52.052;8.354;2024-02-21T10:58:47;16.93;;;6.10;;
16954;SDS011;8594;52.052;8.354;2024-02-21T11:01:15;11.07;;;6.17;;
16954;SDS011;8594;52.052;8.354;2024-02-21T11:03:44;13.97;;;5.70;;
16954;SDS011;8594;52.052;8.354;2024-02-21T11:06:13;12.60;;;5.70;;
16954;SDS011;8594;52.052;8.354;2024-02-21T11:08:43;12.90;;;6.20;;
16954;SDS011;8594;52.052;8.354;2024-02-21T11:11:13;13.60;;;6.00;;
16954;SDS011;8594;52.052;8.354;2024-02-21T11:13:43;14.43;;;6.50;;
16954;SDS011;8594;52.052;8.354;2024-02-21T11:16:11;17.17;;;6.40;;
16954;SDS011;8594;52.052;8.354;2024-02-21T11:18:48;17.60;;;7.00;;
16954;SDS011;8594;52.052;8.354;2024-02-21T11:21:15;14.87;;;6.50;;
16954;SDS011;8594;52.052;8.354;2024-02-21T11:23:41;17.93;;;6.27;;
16954;SDS011;8594;52.052;8.354;2024-02-21T11:26:08;11.80;;;6.00;;
16954;SDS011;8594;52.052;8.354;2024-02-21T11:28:37;16.37;;;6.80;;
16954;SDS011;8594;52.052;8.354;2024-02-21T11:31:06;18.73;;;7.07;;
16954;SDS011;8594;52.052;8.354;2024-02-21T11:33:34;19.10;;;7.47;;
16954;SDS011;8594;52.052;8.354;2024-02-21T11:36:01;18.43;;;6.80;;
16954;SDS011;8594;52.052;8.354;2024-02-21T11:38:29;19.90;;;7.30;;
16954;SDS011;8594;52.052;8.354;2024-02-21T11:40:56;18.90;;;7.83;;
16954;SDS011;8594;52.052;8.354;2024-02-21T11:43:23;20.30;;;7.43;;
16954;SDS011;8594;52.052;8.354;2024-02-21T11:45:51;17.17;;;7.63;;
16954;SDS011;8594;52.052;8.354;2024-02-21T11:48:26;25.63;;;9.50;;
16954;SDS011;8594;52.052;8.354;2024-02-21T11:50:53;18.07;;;7.97;;
16954;SDS011;8594;52.052;8.354;2024-02-21T11:53:20;18.37;;;7.50;;
16954;SDS011;8594;52.052;8.354;2024-02-21T11:55:48;16.73;;;7.17;;
16954;SDS011;8594;52.052;8.354;2024-02-21T11:58:16;24.03;;;7.73;;
16954;SDS011;8594;52.052;8.354;2024-02-21T12:00:42;17.37;;;7.17;;
16954;SDS011;8594;52.052;8.354;2024-02-21T12:03:14;18.87;;;7.20;;
16954;SDS011;8594;52.052;8.354;2024-02-21T12:05:41;19.73;;;8.77;;
16954;SDS011;8594;52.052;8.354;2024-02-21T12:08:08;17.80;;;7.83;;
16954;SDS011;8594;52.052;8.354;2024-02-21T12:10:35;23.63;;;7.67;;
16954;SDS011;8594;52.052;8.354;2024-02-21T12:13:05;15.60;;;6.10;;
16954;SDS011;8594;52.052;8.354;2024-02-21T12:15:34;20.47;;;6.83;;
16954;SDS011;8594;52.052;8.354;2024-02-21T12:18:00;22.03;;;6.47;;
16954;SDS011;8594;52.052;8.354;2024-02-21T12:20:29;22.47;;;6.77;;
16954;SDS011;8594;52.052;8.354;2024-02-21T12:22:57;20.67;;;7.47;;
16954;SDS011;8594;52.052;8.354;2024-02-21T12:25:26;15.07;;;6.73;;
16954;SDS011;8594;52.052;8.354;2024-02-21T12:27:54;26.33;;;6.60;;
16954;SDS011;8594;52.052;8.354;2024-02-21T12:30:21;20.20;;;6.90;;
16954;SDS011;8594;52.052;8.354;2024-02-21T12:32:48;20.77;;;7.03;;
16954;SDS011;8594;52.052;8.354;2024-02-21T12:35:15;21.93;;;7.70;;
16954;SDS011;8594;52.052;8.354;2024-02-21T12:37:43;15.90;;;6.83;;
16954;SDS011;8594;52.052;8.354;2024-02-21T12:40:10;21.53;;;7.07;;
16954;SDS011;8594;52.052;8.354;2024-02-21T12:42:38;27.00;;;7.20;;
16954;SDS011;8594;52.052;8.354;2024-02-21T12:45:05;22.83;;;7.70;;
16954;SDS011;8594;52.052;8.354;2024-02-21T12:47:33;22.83;;;8.53;;
16954;SDS011;8594;52.052;8.354;2024-02-21T12:49:59;23.07;;;7.63;;
16954;SDS011;8594;52.052;8.354;2024-02-21T12:52:28;25.57;;;8.50;;
16954;SDS011;8594;52.052;8.354;2024-02-21T12:54:57;25.67;;;8.53;;
16954;SDS011;8594;52.052;8.354;2024-02-21T12:57:24;21.53;;;8.80;;
16954;SDS011;8594;52.052;8.354;2024-02-21T12:59:51;22.43;;;7.27;;
16954;SDS011;8594;52.052;8.354;2024-02-21T13:02:17;24.33;;;7.60;;
16954;SDS011;8594;52.052;8.354;2024-02-21T13:04:45;25.27;;;7.30;;
16954;SDS011;8594;52.052;8.354;2024-02-21T13:07:11;27.70;;;8.17;;
16954;SDS011;8594;52.052;8.354;2024-02-21T13:09:38;23.03;;;8.20;;
16954;SDS011;8594;52.052;8.354;2024-02-21T13:12:07;26.57;;;7.93;;
16954;SDS011;8594;52.052;8.354;2024-02-21T13:14:34;16.77;;;7.17;;
16954;SDS011;8594;52.052;8.354;2024-02-21T13:17:03;17.50;;;7.87;;
16954;SDS011;8594;52.052;8.354;2024-02-21T13:19:31;15.63;;;6.43;;
16954;SDS011;8594;52.052;8.354;2024-02-21T13:21:57;18.50;;;6.67;;
16954;SDS011;8594;52.052;8.354;2024-02-21T13:24:24;19.20;;;7.63;;
16954;SDS011;8594;52.052;8.354;2024-02-21T13:26:51;16.27;;;7.03;;
16954;SDS011;8594;52.052;8.354;2024-02-21T13:29:19;17.73;;;6.83;;
16954;SDS011;8594;52.052;8.354;2024-02-21T13:31:46;17.50;;;6.57;;
16954;SDS011;8594;52.052;8.354;2024-02-21T13:34:13;16.27;;;7.30;;
16954;SDS011;8594;52.052;8.354;2024-02-21T13:36:39;15.23;;;7.23;;
16954;SDS011;8594;52.052;8.354;2024-02-21T13:39:06;18.70;;;7.10;;
16954;SDS011;8594;52.052;8.354;2024-02-21T13:41:37;16.83;;;6.53;;
16954;SDS011;8594;52.052;8.354;2024-02-21T13:44:04;20.93;;;6.77;;
16954;SDS011;8594;52.052;8.354;2024-02-21T13:46:33;15.80;;;7.33;;
16954;SDS011;8594;52.052;8.354;2024-02-21T13:49:02;14.33;;;6.30;;
16954;SDS011;8594;52.052;8.354;2024-02-21T13:51:32;13.60;;;6.53;;
16954;SDS011;8594;52.052;8.354;2024-02-21T13:54:01;17.53;;;6.63;;
16954;SDS011;8594;52.052;8.354;2024-02-21T13:56:28;16.33;;;5.57;;
16954;SDS011;8594;52.052;8.354;2024-02-21T13:58:54;12.60;;;5.70;;
16954;SDS011;8594;52.052;8.354;2024-02-21T14:01:21;14.67;;;5.20;;
16954;SDS011;8594;52.052;8.354;2024-02-21T14:03:49;11.73;;;4.83;;
16954;SDS011;8594;52.052;8.354;2024-02-21T14:06:16;15.60;;;5.23;;
16954;SDS011;8594;52.052;8.354;2024-02-21T14:08:43;17.73;;;4.90;;
16954;SDS011;8594;52.052;8.354;2024-02-21T14:11:10;8.87;;;4.30;;
16954;SDS011;8594;52.052;8.354;2024-02-21T14:13:36;10.53;;;4.43;;
16954;SDS011;8594;52.052;8.354;2024-02-21T14:16:08;13.10;;;4.00;;
16954;SDS011;8594;52.052;8.354;2024-02-21T14:18:38;11.60;;;3.90;;
16954;SDS011;8594;52.052;8.354;2024-02-21T14:21:07;14.37;;;4.13;;
16954;SDS011;8594;52.052;8.354;2024-02-21T14:23:35;9.87;;;3.80;;
16954;SDS011;8594;52.052;8.354;2024-02-21T14:26:02;13.50;;;4.10;;
16954;SDS011;8594;52.052;8.354;2024-02-21T14:28:29;10.13;;;3.80;;
16954;SDS011;8594;52.052;8.354;2024-02-21T14:30:56;11.60;;;4.30;;
16954;SDS011;8594;52.052;8.354;2024-02-21T14:33:25;10.10;;;3.57;;
16954;SDS011;8594;52.052;8.354;2024-02-21T14:35:52;11.23;;;4.23;;
16954;SDS011;8594;52.052;8.354;2024-02-21T14:38:20;16.17;;;4.43;;
16954;SDS011;8594;52.052;8.354;2024-02-21T14:40:46;15.30;;;4.10;;
16954;SDS011;8594;52.052;8.354;2024-02-21T14:43:13;15.37;;;4.40;;